sensor_id;sensor_type;location;lat;lon;timestamp;P1;durP1;ratioP1;P2;durP2;ratioP2
15393;SDS011;7795;47.986;11.868;2022-09-09T00:01:58;0.93;;;0.90;;
15393;SDS011;7795;47.986;11.868;2022-09-09T00:04:30;1.23;;;0.80;;
15393;SDS011;7795;47.986;11.868;2022-09-09T00:06:59;1.80;;;0.90;;
15393;SDS011;7795;47.986;11.868;2022-09-09T00:09:29;0.80;;;0.80;;
15393;SDS011;7795;47.986;11.868;2022-09-09T00:12:04;1.87;;;0.77;;
15393;SDS011;7795;47.986;11.868;2022-09-09T00:14:37;0.87;;;0.70;;
15393;SDS011;7795;47.986;11.868;2022-09-09T00:17:14;1.73;;;0.90;;
15393;SDS011;7795;47.986;11.868;2022-09-09T00:19:48;0.67;;;0.60;;
15393;SDS011;7795;47.986;11.868;2022-09-09T00:22:22;1.50;;;0.90;;
15393;SDS011;7795;47.986;11.868;2022-09-09T00:24:49;1.30;;;0.97;;
15393;SDS011;7795;47.986;11.868;2022-09-09T00:27:23;0.70;;;0.70;;
15393;SDS011;7795;47.986;11.868;2022-09-09T00:29:56;1.70;;;0.93;;
15393;SDS011;7795;47.986;11.868;2022-09-09T00:32:28;0.80;;;0.80;;
15393;SDS011;7795;47.986;11.868;2022-09-09T00:34:56;1.23;;;0.83;;
15393;SDS011;7795;47.986;11.868;2022-09-09T00:37:26;1.13;;;0.80;;
15393;SDS011;7795;47.986;11.868;2022-09-09T00:39:57;4.67;;;1.00;;
15393;SDS011;7795;47.986;11.868;2022-09-09T00:42:26;3.43;;;1.00;;
15393;SDS011;7795;47.986;11.868;2022-09-09T00:45:02;0.80;;;0.80;;
15393;SDS011;7795;47.986;11.868;2022-09-09T00:47:43;4.20;;;1.10;;
15393;SDS011;7795;47.986;11.868;2022-09-09T00:50:15;1.90;;;0.90;;
15393;SDS011;7795;47.986;11.868;2022-09-09T00:52:58;0.83;;;0.83;;
15393;SDS011;7795;47.986;11.868;2022-09-09T00:55:34;1.03;;;0.80;;
15393;SDS011;7795;47.986;11.868;2022-09-09T00:58:06;1.60;;;0.80;;
15393;SDS011;7795;47.986;11.868;2022-09-09T01:00:35;1.10;;;0.80;;
15393;SDS011;7795;47.986;11.868;2022-09-09T01:03:14;2.83;;;0.93;;
15393;SDS011;7795;47.986;11.868;2022-09-09T01:05:48;0.80;;;0.80;;
15393;SDS011;7795;47.986;11.868;2022-09-09T01:08:28;2.43;;;1.00;;
15393;SDS011;7795;47.986;11.868;2022-09-09T01:11:04;0.73;;;0.73;;
15393;SDS011;7795;47.986;11.868;2022-09-09T01:13:33;1.67;;;0.90;;
15393;SDS011;7795;47.986;11.868;2022-09-09T01:16:01;0.93;;;0.80;;
15393;SDS011;7795;47.986;11.868;2022-09-09T01:18:31;1.23;;;0.80;;
15393;SDS011;7795;47.986;11.868;2022-09-09T01:21:02;1.73;;;0.93;;
15393;SDS011;7795;47.986;11.868;2022-09-09T01:23:38;0.60;;;0.60;;
15393;SDS011;7795;47.986;11.868;2022-09-09T01:26:23;0.70;;;0.70;;
15393;SDS011;7795;47.986;11.868;2022-09-09T01:28:52;0.90;;;0.80;;
15393;SDS011;7795;47.986;11.868;2022-09-09T01:31:19;1.03;;;1.00;;
15393;SDS011;7795;47.986;11.868;2022-09-09T01:33:48;3.13;;;0.80;;
15393;SDS011;7795;47.986;11.868;2022-09-09T01:36:15;1.20;;;0.83;;
15393;SDS011;7795;47.986;11.868;2022-09-09T01:38:46;1.97;;;0.80;;
15393;SDS011;7795;47.986;11.868;2022-09-09T01:41:12;0.80;;;0.67;;
15393;SDS011;7795;47.986;11.868;2022-09-09T01:43:39;0.70;;;0.70;;
15393;SDS011;7795;47.986;11.868;2022-09-09T01:46:05;0.90;;;0.80;;
15393;SDS011;7795;47.986;11.868;2022-09-09T01:48:30;1.30;;;0.63;;
15393;SDS011;7795;47.986;11.868;2022-09-09T01:50:56;1.70;;;0.80;;
15393;SDS011;7795;47.986;11.868;2022-09-09T01:53:22;1.67;;;0.80;;
15393;SDS011;7795;47.986;11.868;2022-09-09T01:55:49;0.80;;;0.67;;
15393;SDS011;7795;47.986;11.868;2022-09-09T01:58:23;0.93;;;0.90;;
15393;SDS011;7795;47.986;11.868;2022-09-09T02:01:02;1.20;;;1.10;;
15393;SDS011;7795;47.986;11.868;2022-09-09T02:03:35;1.53;;;0.90;;
15393;SDS011;7795;47.986;11.868;2022-09-09T02:06:04;1.10;;;0.90;;
15393;SDS011;7795;47.986;11.868;2022-09-09T02:08:40;2.27;;;0.90;;
15393;SDS011;7795;47.986;11.868;2022-09-09T02:11:11;1.03;;;0.90;;
15393;SDS011;7795;47.986;11.868;2022-09-09T02:13:39;0.70;;;0.70;;
15393;SDS011;7795;47.986;11.868;2022-09-09T02:16:10;1.87;;;0.80;;
15393;SDS011;7795;47.986;11.868;2022-09-09T02:18:41;1.57;;;0.87;;
15393;SDS011;7795;47.986;11.868;2022-09-09T02:21:12;1.13;;;0.77;;
15393;SDS011;7795;47.986;11.868;2022-09-09T02:23:39;1.90;;;1.17;;
15393;SDS011;7795;47.986;11.868;2022-09-09T02:26:07;1.73;;;1.00;;
15393;SDS011;7795;47.986;11.868;2022-09-09T02:28:36;3.00;;;1.20;;
15393;SDS011;7795;47.986;11.868;2022-09-09T02:31:04;0.50;;;0.50;;
15393;SDS011;7795;47.986;11.868;2022-09-09T02:33:33;0.67;;;0.67;;
15393;SDS011;7795;47.986;11.868;2022-09-09T02:36:02;0.90;;;0.87;;
15393;SDS011;7795;47.986;11.868;2022-09-09T02:38:33;0.87;;;0.83;;
15393;SDS011;7795;47.986;11.868;2022-09-09T02:41:02;2.00;;;0.90;;
15393;SDS011;7795;47.986;11.868;2022-09-09T02:43:30;3.20;;;0.83;;
15393;SDS011;7795;47.986;11.868;2022-09-09T02:45:58;3.43;;;1.00;;
15393;SDS011;7795;47.986;11.868;2022-09-09T02:48:31;1.43;;;0.70;;
15393;SDS011;7795;47.986;11.868;2022-09-09T02:51:11;1.17;;;0.90;;
15393;SDS011;7795;47.986;11.868;2022-09-09T02:53:45;1.30;;;0.93;;
15393;SDS011;7795;47.986;11.868;2022-09-09T02:56:15;1.90;;;1.00;;
15393;SDS011;7795;47.986;11.868;2022-09-09T02:58:43;2.63;;;1.00;;
15393;SDS011;7795;47.986;11.868;2022-09-09T03:01:09;1.50;;;0.93;;
15393;SDS011;7795;47.986;11.868;2022-09-09T03:03:37;2.53;;;0.97;;
15393;SDS011;7795;47.986;11.868;2022-09-09T03:06:03;1.83;;;0.90;;
15393;SDS011;7795;47.986;11.868;2022-09-09T03:08:30;2.30;;;0.80;;
15393;SDS011;7795;47.986;11.868;2022-09-09T03:10:57;2.00;;;0.90;;
15393;SDS011;7795;47.986;11.868;2022-09-09T03:13:26;6.27;;;1.43;;
15393;SDS011;7795;47.986;11.868;2022-09-09T03:15:51;3.20;;;1.40;;
15393;SDS011;7795;47.986;11.868;2022-09-09T03:18:17;1.77;;;0.97;;
15393;SDS011;7795;47.986;11.868;2022-09-09T03:20:45;1.30;;;0.87;;
15393;SDS011;7795;47.986;11.868;2022-09-09T03:23:13;1.77;;;0.80;;
15393;SDS011;7795;47.986;11.868;2022-09-09T03:25:39;2.23;;;1.00;;
15393;SDS011;7795;47.986;11.868;2022-09-09T03:28:11;3.07;;;0.83;;
15393;SDS011;7795;47.986;11.868;2022-09-09T03:30:37;1.20;;;1.00;;
15393;SDS011;7795;47.986;11.868;2022-09-09T03:33:03;2.00;;;0.90;;
15393;SDS011;7795;47.986;11.868;2022-09-09T03:35:28;2.87;;;1.07;;
15393;SDS011;7795;47.986;11.868;2022-09-09T03:37:56;2.33;;;0.97;;
15393;SDS011;7795;47.986;11.868;2022-09-09T03:40:21;1.40;;;1.17;;
15393;SDS011;7795;47.986;11.868;2022-09-09T03:42:47;2.73;;;1.00;;
15393;SDS011;7795;47.986;11.868;2022-09-09T03:45:13;1.70;;;1.00;;
15393;SDS011;7795;47.986;11.868;2022-09-09T03:47:39;2.03;;;1.10;;
15393;SDS011;7795;47.986;11.868;2022-09-09T03:50:06;2.30;;;1.00;;
15393;SDS011;7795;47.986;11.868;2022-09-09T03:52:34;2.40;;;1.00;;
15393;SDS011;7795;47.986;11.868;2022-09-09T03:55:02;1.10;;;0.90;;
15393;SDS011;7795;47.986;11.868;2022-09-09T03:57:28;1.63;;;0.90;;
15393;SDS011;7795;47.986;11.868;2022-09-09T03:59:55;2.67;;;1.00;;
15393;SDS011;7795;47.986;11.868;2022-09-09T04:02:20;2.87;;;1.20;;
15393;SDS011;7795;47.986;11.868;2022-09-09T04:04:46;2.07;;;1.10;;
15393;SDS011;7795;47.986;11.868;2022-09-09T04:07:12;2.50;;;1.10;;
15393;SDS011;7795;47.986;11.868;2022-09-09T04:09:38;1.33;;;1.00;;
15393;SDS011;7795;47.986;11.868;2022-09-09T04:12:05;2.00;;;1.13;;
15393;SDS011;7795;47.986;11.868;2022-09-09T04:14:31;1.10;;;0.70;;
15393;SDS011;7795;47.986;11.868;2022-09-09T04:16:57;1.50;;;0.80;;
15393;SDS011;7795;47.986;11.868;2022-09-09T04:19:24;1.20;;;0.80;;
15393;SDS011;7795;47.986;11.868;2022-09-09T04:21:50;3.50;;;0.90;;
15393;SDS011;7795;47.986;11.868;2022-09-09T04:24:16;1.93;;;0.93;;
15393;SDS011;7795;47.986;11.868;2022-09-09T04:26:42;0.80;;;0.80;;
15393;SDS011;7795;47.986;11.868;2022-09-09T04:29:10;2.40;;;1.10;;
15393;SDS011;7795;47.986;11.868;2022-09-09T04:31:35;3.50;;;1.00;;
15393;SDS011;7795;47.986;11.868;2022-09-09T04:34:02;2.40;;;1.20;;
15393;SDS011;7795;47.986;11.868;2022-09-09T04:36:30;2.17;;;1.10;;
15393;SDS011;7795;47.986;11.868;2022-09-09T04:38:57;2.00;;;1.03;;
15393;SDS011;7795;47.986;11.868;2022-09-09T04:41:23;1.57;;;1.00;;
15393;SDS011;7795;47.986;11.868;2022-09-09T04:43:48;2.03;;;1.10;;
15393;SDS011;7795;47.986;11.868;2022-09-09T04:46:16;4.37;;;1.83;;
15393;SDS011;7795;47.986;11.868;2022-09-09T04:48:42;1.50;;;1.40;;
15393;SDS011;7795;47.986;11.868;2022-09-09T04:51:09;2.10;;;1.13;;
15393;SDS011;7795;47.986;11.868;2022-09-09T04:53:38;5.20;;;1.17;;
15393;SDS011;7795;47.986;11.868;2022-09-09T04:56:05;2.80;;;1.00;;
15393;SDS011;7795;47.986;11.868;2022-09-09T04:58:33;1.30;;;0.80;;
15393;SDS011;7795;47.986;11.868;2022-09-09T05:01:06;2.10;;;0.83;;
15393;SDS011;7795;47.986;11.868;2022-09-09T05:03:34;1.90;;;0.90;;
15393;SDS011;7795;47.986;11.868;2022-09-09T05:06:04;2.70;;;1.77;;
15393;SDS011;7795;47.986;11.868;2022-09-09T05:08:31;1.77;;;1.30;;
15393;SDS011;7795;47.986;11.868;2022-09-09T05:10:57;2.93;;;1.20;;
15393;SDS011;7795;47.986;11.868;2022-09-09T05:13:24;1.03;;;0.93;;
15393;SDS011;7795;47.986;11.868;2022-09-09T05:15:51;1.40;;;1.30;;
15393;SDS011;7795;47.986;11.868;2022-09-09T05:18:17;1.57;;;1.10;;
15393;SDS011;7795;47.986;11.868;2022-09-09T05:20:44;2.43;;;1.20;;
15393;SDS011;7795;47.986;11.868;2022-09-09T05:23:10;0.93;;;0.80;;
15393;SDS011;7795;47.986;11.868;2022-09-09T05:25:38;3.30;;;1.07;;
15393;SDS011;7795;47.986;11.868;2022-09-09T05:28:04;2.57;;;1.40;;
15393;SDS011;7795;47.986;11.868;2022-09-09T05:30:30;1.87;;;1.00;;
15393;SDS011;7795;47.986;11.868;2022-09-09T05:32:56;2.60;;;1.20;;
15393;SDS011;7795;47.986;11.868;2022-09-09T05:35:21;4.27;;;1.20;;
15393;SDS011;7795;47.986;11.868;2022-09-09T05:37:49;2.77;;;1.27;;
15393;SDS011;7795;47.986;11.868;2022-09-09T05:40:15;3.00;;;1.20;;
15393;SDS011;7795;47.986;11.868;2022-09-09T05:42:41;4.30;;;1.30;;
15393;SDS011;7795;47.986;11.868;2022-09-09T05:45:07;6.90;;;1.60;;
15393;SDS011;7795;47.986;11.868;2022-09-09T05:47:34;4.07;;;1.50;;
15393;SDS011;7795;47.986;11.868;2022-09-09T05:50:00;3.40;;;1.40;;
15393;SDS011;7795;47.986;11.868;2022-09-09T05:52:26;3.27;;;1.30;;
15393;SDS011;7795;47.986;11.868;2022-09-09T05:54:53;1.57;;;1.30;;
15393;SDS011;7795;47.986;11.868;2022-09-09T05:57:21;2.60;;;1.70;;
15393;SDS011;7795;47.986;11.868;2022-09-09T05:59:47;2.70;;;2.27;;
15393;SDS011;7795;47.986;11.868;2022-09-09T06:02:12;5.87;;;1.93;;
15393;SDS011;7795;47.986;11.868;2022-09-09T06:04:39;1.67;;;1.33;;
15393;SDS011;7795;47.986;11.868;2022-09-09T06:07:05;3.23;;;1.23;;
15393;SDS011;7795;47.986;11.868;2022-09-09T06:09:31;2.87;;;1.37;;
15393;SDS011;7795;47.986;11.868;2022-09-09T06:11:58;2.60;;;1.60;;
15393;SDS011;7795;47.986;11.868;2022-09-09T06:14:24;4.33;;;1.50;;
15393;SDS011;7795;47.986;11.868;2022-09-09T06:16:51;5.07;;;1.77;;
15393;SDS011;7795;47.986;11.868;2022-09-09T06:19:17;3.13;;;1.27;;
15393;SDS011;7795;47.986;11.868;2022-09-09T06:21:43;1.77;;;1.30;;
15393;SDS011;7795;47.986;11.868;2022-09-09T06:24:09;10.43;;;4.10;;
15393;SDS011;7795;47.986;11.868;2022-09-09T06:26:36;7.13;;;3.53;;
15393;SDS011;7795;47.986;11.868;2022-09-09T06:29:07;2.80;;;1.70;;
15393;SDS011;7795;47.986;11.868;2022-09-09T06:31:34;2.63;;;1.50;;
15393;SDS011;7795;47.986;11.868;2022-09-09T06:34:03;2.83;;;1.57;;
15393;SDS011;7795;47.986;11.868;2022-09-09T06:36:30;3.20;;;1.70;;
15393;SDS011;7795;47.986;11.868;2022-09-09T06:38:57;3.23;;;1.30;;
15393;SDS011;7795;47.986;11.868;2022-09-09T06:41:25;1.30;;;1.20;;
15393;SDS011;7795;47.986;11.868;2022-09-09T06:43:52;2.17;;;1.43;;
15393;SDS011;7795;47.986;11.868;2022-09-09T06:46:20;3.60;;;1.60;;
15393;SDS011;7795;47.986;11.868;2022-09-09T06:48:47;3.23;;;1.57;;
15393;SDS011;7795;47.986;11.868;2022-09-09T06:51:14;3.23;;;1.70;;
15393;SDS011;7795;47.986;11.868;2022-09-09T06:53:41;1.33;;;1.23;;
15393;SDS011;7795;47.986;11.868;2022-09-09T06:56:20;1.53;;;1.20;;
15393;SDS011;7795;47.986;11.868;2022-09-09T06:58:48;1.43;;;1.17;;
15393;SDS011;7795;47.986;11.868;2022-09-09T07:01:15;1.10;;;1.00;;
15393;SDS011;7795;47.986;11.868;2022-09-09T07:03:44;1.03;;;0.90;;
15393;SDS011;7795;47.986;11.868;2022-09-09T07:06:13;2.13;;;1.10;;
15393;SDS011;7795;47.986;11.868;2022-09-09T07:08:41;2.50;;;1.40;;
15393;SDS011;7795;47.986;11.868;2022-09-09T07:11:08;1.60;;;1.00;;
15393;SDS011;7795;47.986;11.868;2022-09-09T07:13:34;1.17;;;1.07;;
15393;SDS011;7795;47.986;11.868;2022-09-09T07:16:02;1.43;;;1.07;;
15393;SDS011;7795;47.986;11.868;2022-09-09T07:18:29;1.17;;;1.07;;
15393;SDS011;7795;47.986;11.868;2022-09-09T07:20:57;1.00;;;0.80;;
15393;SDS011;7795;47.986;11.868;2022-09-09T07:23:23;1.60;;;0.93;;
15393;SDS011;7795;47.986;11.868;2022-09-09T07:25:49;1.93;;;1.30;;
15393;SDS011;7795;47.986;11.868;2022-09-09T07:28:15;2.17;;;1.30;;
15393;SDS011;7795;47.986;11.868;2022-09-09T07:30:41;2.70;;;1.60;;
15393;SDS011;7795;47.986;11.868;2022-09-09T07:33:07;1.83;;;1.20;;
15393;SDS011;7795;47.986;11.868;2022-09-09T07:35:34;1.37;;;0.83;;
15393;SDS011;7795;47.986;11.868;2022-09-09T07:38:03;0.77;;;0.77;;
15393;SDS011;7795;47.986;11.868;2022-09-09T07:40:32;1.17;;;0.90;;
15393;SDS011;7795;47.986;11.868;2022-09-09T07:42:57;2.37;;;1.10;;
15393;SDS011;7795;47.986;11.868;2022-09-09T07:45:24;1.47;;;0.60;;
15393;SDS011;7795;47.986;11.868;2022-09-09T07:47:50;0.90;;;0.70;;
15393;SDS011;7795;47.986;11.868;2022-09-09T07:50:15;1.00;;;0.83;;
15393;SDS011;7795;47.986;11.868;2022-09-09T07:52:41;1.27;;;0.97;;
15393;SDS011;7795;47.986;11.868;2022-09-09T07:55:08;2.47;;;0.90;;
15393;SDS011;7795;47.986;11.868;2022-09-09T07:57:35;1.67;;;0.90;;
15393;SDS011;7795;47.986;11.868;2022-09-09T08:00:02;1.40;;;0.80;;
15393;SDS011;7795;47.986;11.868;2022-09-09T08:02:28;2.23;;;1.33;;
15393;SDS011;7795;47.986;11.868;2022-09-09T08:04:54;2.70;;;0.90;;
15393;SDS011;7795;47.986;11.868;2022-09-09T08:07:21;3.07;;;1.70;;
15393;SDS011;7795;47.986;11.868;2022-09-09T08:09:47;4.70;;;2.50;;
15393;SDS011;7795;47.986;11.868;2022-09-09T08:12:15;2.77;;;1.23;;
15393;SDS011;7795;47.986;11.868;2022-09-09T08:14:41;1.60;;;1.00;;
15393;SDS011;7795;47.986;11.868;2022-09-09T08:17:07;8.83;;;3.60;;
15393;SDS011;7795;47.986;11.868;2022-09-09T08:19:33;4.47;;;2.60;;
15393;SDS011;7795;47.986;11.868;2022-09-09T08:22:00;2.57;;;1.60;;
15393;SDS011;7795;47.986;11.868;2022-09-09T08:24:26;1.97;;;1.00;;
15393;SDS011;7795;47.986;11.868;2022-09-09T08:26:52;1.80;;;1.03;;
15393;SDS011;7795;47.986;11.868;2022-09-09T08:29:20;2.00;;;1.00;;
15393;SDS011;7795;47.986;11.868;2022-09-09T08:31:46;1.83;;;1.27;;
15393;SDS011;7795;47.986;11.868;2022-09-09T08:34:13;2.83;;;1.13;;
15393;SDS011;7795;47.986;11.868;2022-09-09T08:36:40;1.83;;;0.90;;
15393;SDS011;7795;47.986;11.868;2022-09-09T08:39:07;2.27;;;1.10;;
15393;SDS011;7795;47.986;11.868;2022-09-09T08:44:35;0.67;;;0.60;;
15393;SDS011;7795;47.986;11.868;2022-09-09T08:47:14;1.57;;;0.83;;
15393;SDS011;7795;47.986;11.868;2022-09-09T08:49:48;2.43;;;0.90;;
15393;SDS011;7795;47.986;11.868;2022-09-09T08:52:28;1.23;;;1.03;;
15393;SDS011;7795;47.986;11.868;2022-09-09T08:54:56;2.07;;;0.80;;
15393;SDS011;7795;47.986;11.868;2022-09-09T08:57:28;0.93;;;0.60;;
15393;SDS011;7795;47.986;11.868;2022-09-09T08:59:58;2.30;;;0.70;;
15393;SDS011;7795;47.986;11.868;2022-09-09T09:02:25;1.83;;;0.70;;
15393;SDS011;7795;47.986;11.868;2022-09-09T09:04:58;1.63;;;0.80;;
15393;SDS011;7795;47.986;11.868;2022-09-09T09:07:40;1.87;;;0.73;;
15393;SDS011;7795;47.986;11.868;2022-09-09T09:10:15;0.60;;;0.60;;
15393;SDS011;7795;47.986;11.868;2022-09-09T09:12:55;3.93;;;0.97;;
15393;SDS011;7795;47.986;11.868;2022-09-09T09:15:23;2.60;;;1.00;;
15393;SDS011;7795;47.986;11.868;2022-09-09T09:17:51;0.80;;;0.70;;
15393;SDS011;7795;47.986;11.868;2022-09-09T09:20:18;1.50;;;1.00;;
15393;SDS011;7795;47.986;11.868;2022-09-09T09:22:49;2.67;;;1.10;;
15393;SDS011;7795;47.986;11.868;2022-09-09T09:25:17;1.27;;;0.93;;
15393;SDS011;7795;47.986;11.868;2022-09-09T09:27:48;2.40;;;0.80;;
15393;SDS011;7795;47.986;11.868;2022-09-09T09:30:18;1.07;;;0.80;;
15393;SDS011;7795;47.986;11.868;2022-09-09T09:32:50;2.73;;;0.77;;
15393;SDS011;7795;47.986;11.868;2022-09-09T09:35:19;1.77;;;0.73;;
15393;SDS011;7795;47.986;11.868;2022-09-09T09:37:45;0.87;;;0.70;;
15393;SDS011;7795;47.986;11.868;2022-09-09T09:40:12;2.70;;;0.90;;
15393;SDS011;7795;47.986;11.868;2022-09-09T09:42:47;1.00;;;0.60;;
15393;SDS011;7795;47.986;11.868;2022-09-09T09:45:15;1.90;;;0.87;;
15393;SDS011;7795;47.986;11.868;2022-09-09T09:47:45;2.27;;;0.80;;
15393;SDS011;7795;47.986;11.868;2022-09-09T09:50:19;3.27;;;0.90;;
15393;SDS011;7795;47.986;11.868;2022-09-09T09:52:53;1.50;;;0.67;;
15393;SDS011;7795;47.986;11.868;2022-09-09T09:55:20;2.27;;;0.97;;
15393;SDS011;7795;47.986;11.868;2022-09-09T09:57:47;2.93;;;1.03;;
15393;SDS011;7795;47.986;11.868;2022-09-09T10:00:14;1.57;;;0.80;;
15393;SDS011;7795;47.986;11.868;2022-09-09T10:02:43;2.13;;;1.00;;
15393;SDS011;7795;47.986;11.868;2022-09-09T10:05:13;2.00;;;0.90;;
15393;SDS011;7795;47.986;11.868;2022-09-09T10:07:41;1.17;;;0.73;;
15393;SDS011;7795;47.986;11.868;2022-09-09T10:10:12;1.67;;;0.90;;
15393;SDS011;7795;47.986;11.868;2022-09-09T10:12:43;2.47;;;0.97;;
15393;SDS011;7795;47.986;11.868;2022-09-09T10:15:29;1.03;;;0.87;;
15393;SDS011;7795;47.986;11.868;2022-09-09T10:18:04;1.33;;;0.70;;
15393;SDS011;7795;47.986;11.868;2022-09-09T10:20:44;1.53;;;0.80;;
15393;SDS011;7795;47.986;11.868;2022-09-09T10:23:21;0.83;;;0.80;;
15393;SDS011;7795;47.986;11.868;2022-09-09T10:26:02;1.27;;;0.80;;
15393;SDS011;7795;47.986;11.868;2022-09-09T10:28:48;2.60;;;1.00;;
15393;SDS011;7795;47.986;11.868;2022-09-09T10:31:32;2.07;;;0.80;;
15393;SDS011;7795;47.986;11.868;2022-09-09T10:34:09;1.90;;;0.80;;
15393;SDS011;7795;47.986;11.868;2022-09-09T10:36:43;3.07;;;0.90;;
15393;SDS011;7795;47.986;11.868;2022-09-09T10:39:15;1.47;;;0.70;;
15393;SDS011;7795;47.986;11.868;2022-09-09T10:42:01;1.70;;;0.90;;
15393;SDS011;7795;47.986;11.868;2022-09-09T10:44:38;1.00;;;0.60;;
15393;SDS011;7795;47.986;11.868;2022-09-09T10:47:29;2.20;;;0.90;;
15393;SDS011;7795;47.986;11.868;2022-09-09T10:50:12;1.70;;;0.90;;
15393;SDS011;7795;47.986;11.868;2022-09-09T10:52:55;4.20;;;0.93;;
15393;SDS011;7795;47.986;11.868;2022-09-09T10:55:33;1.73;;;0.90;;
15393;SDS011;7795;47.986;11.868;2022-09-09T10:58:04;6.20;;;1.60;;
15393;SDS011;7795;47.986;11.868;2022-09-09T11:00:36;5.43;;;1.17;;
15393;SDS011;7795;47.986;11.868;2022-09-09T11:03:05;0.90;;;0.50;;
15393;SDS011;7795;47.986;11.868;2022-09-09T11:05:34;1.53;;;0.80;;
15393;SDS011;7795;47.986;11.868;2022-09-09T11:08:06;3.30;;;1.10;;
15393;SDS011;7795;47.986;11.868;2022-09-09T11:10:39;1.70;;;1.23;;
15393;SDS011;7795;47.986;11.868;2022-09-09T11:13:09;1.00;;;0.83;;
15393;SDS011;7795;47.986;11.868;2022-09-09T11:15:41;1.07;;;0.73;;
15393;SDS011;7795;47.986;11.868;2022-09-09T11:18:11;1.50;;;0.80;;
15393;SDS011;7795;47.986;11.868;2022-09-09T11:20:40;1.60;;;0.80;;
15393;SDS011;7795;47.986;11.868;2022-09-09T11:23:09;2.60;;;0.70;;
15393;SDS011;7795;47.986;11.868;2022-09-09T11:25:40;0.90;;;0.70;;
15393;SDS011;7795;47.986;11.868;2022-09-09T11:28:17;1.80;;;0.83;;
15393;SDS011;7795;47.986;11.868;2022-09-09T11:30:56;1.00;;;0.50;;
15393;SDS011;7795;47.986;11.868;2022-09-09T11:33:34;1.10;;;0.77;;
15393;SDS011;7795;47.986;11.868;2022-09-09T11:39:13;1.73;;;1.00;;
15393;SDS011;7795;47.986;11.868;2022-09-09T11:42:06;0.60;;;0.50;;
15393;SDS011;7795;47.986;11.868;2022-09-09T11:44:40;0.60;;;0.60;;
15393;SDS011;7795;47.986;11.868;2022-09-09T11:47:15;1.07;;;0.63;;
15393;SDS011;7795;47.986;11.868;2022-09-09T11:49:46;1.43;;;0.60;;
15393;SDS011;7795;47.986;11.868;2022-09-09T11:52:18;0.47;;;0.37;;
15393;SDS011;7795;47.986;11.868;2022-09-09T11:54:48;0.63;;;0.63;;
15393;SDS011;7795;47.986;11.868;2022-09-09T11:57:22;1.03;;;0.60;;
15393;SDS011;7795;47.986;11.868;2022-09-09T11:59:52;1.33;;;0.77;;
15393;SDS011;7795;47.986;11.868;2022-09-09T12:02:18;1.90;;;0.80;;
15393;SDS011;7795;47.986;11.868;2022-09-09T12:04:49;0.70;;;0.50;;
15393;SDS011;7795;47.986;11.868;2022-09-09T12:07:26;1.17;;;0.60;;
15393;SDS011;7795;47.986;11.868;2022-09-09T12:09:58;0.70;;;0.70;;
15393;SDS011;7795;47.986;11.868;2022-09-09T12:12:29;1.03;;;0.50;;
15393;SDS011;7795;47.986;11.868;2022-09-09T12:14:58;0.50;;;0.50;;
15393;SDS011;7795;47.986;11.868;2022-09-09T12:17:26;0.60;;;0.50;;
15393;SDS011;7795;47.986;11.868;2022-09-09T12:20:00;0.53;;;0.50;;
15393;SDS011;7795;47.986;11.868;2022-09-09T12:22:32;0.50;;;0.50;;
15393;SDS011;7795;47.986;11.868;2022-09-09T12:25:05;0.87;;;0.70;;
15393;SDS011;7795;47.986;11.868;2022-09-09T12:27:43;0.90;;;0.70;;
15393;SDS011;7795;47.986;11.868;2022-09-09T12:30:16;0.93;;;0.40;;
15393;SDS011;7795;47.986;11.868;2022-09-09T12:32:42;0.50;;;0.50;;
15393;SDS011;7795;47.986;11.868;2022-09-09T12:35:10;1.33;;;0.50;;
15393;SDS011;7795;47.986;11.868;2022-09-09T12:37:44;0.70;;;0.40;;
15393;SDS011;7795;47.986;11.868;2022-09-09T12:40:19;0.57;;;0.50;;
15393;SDS011;7795;47.986;11.868;2022-09-09T12:42:48;0.60;;;0.53;;
15393;SDS011;7795;47.986;11.868;2022-09-09T12:45:15;1.20;;;0.50;;
15393;SDS011;7795;47.986;11.868;2022-09-09T12:47:44;0.80;;;0.53;;
15393;SDS011;7795;47.986;11.868;2022-09-09T12:50:16;0.47;;;0.47;;
15393;SDS011;7795;47.986;11.868;2022-09-09T12:52:44;1.80;;;0.80;;
15393;SDS011;7795;47.986;11.868;2022-09-09T12:55:15;3.17;;;0.93;;
15393;SDS011;7795;47.986;11.868;2022-09-09T12:57:43;1.43;;;0.60;;
15393;SDS011;7795;47.986;11.868;2022-09-09T13:00:14;1.37;;;0.63;;
15393;SDS011;7795;47.986;11.868;2022-09-09T13:02:45;2.37;;;0.50;;
15393;SDS011;7795;47.986;11.868;2022-09-09T13:05:13;6.17;;;0.80;;
15393;SDS011;7795;47.986;11.868;2022-09-09T13:07:41;4.13;;;0.90;;
15393;SDS011;7795;47.986;11.868;2022-09-09T13:10:10;1.00;;;0.77;;
15393;SDS011;7795;47.986;11.868;2022-09-09T13:12:36;2.27;;;1.00;;
15393;SDS011;7795;47.986;11.868;2022-09-09T13:15:03;1.87;;;1.73;;
15393;SDS011;7795;47.986;11.868;2022-09-09T13:17:37;3.07;;;1.60;;
15393;SDS011;7795;47.986;11.868;2022-09-09T13:20:04;3.73;;;1.90;;
15393;SDS011;7795;47.986;11.868;2022-09-09T13:22:31;1.90;;;1.60;;
15393;SDS011;7795;47.986;11.868;2022-09-09T13:25:01;1.50;;;1.20;;
15393;SDS011;7795;47.986;11.868;2022-09-09T13:27:31;2.67;;;2.07;;
15393;SDS011;7795;47.986;11.868;2022-09-09T13:29:59;2.63;;;1.90;;
15393;SDS011;7795;47.986;11.868;2022-09-09T13:32:26;4.87;;;3.20;;
15393;SDS011;7795;47.986;11.868;2022-09-09T13:34:54;2.57;;;2.00;;
15393;SDS011;7795;47.986;11.868;2022-09-09T13:37:23;2.63;;;1.60;;
15393;SDS011;7795;47.986;11.868;2022-09-09T13:39:52;2.07;;;1.43;;
15393;SDS011;7795;47.986;11.868;2022-09-09T13:42:21;1.53;;;1.33;;
15393;SDS011;7795;47.986;11.868;2022-09-09T13:44:50;1.13;;;1.00;;
15393;SDS011;7795;47.986;11.868;2022-09-09T13:47:17;1.43;;;0.80;;
15393;SDS011;7795;47.986;11.868;2022-09-09T13:49:48;1.27;;;0.70;;
15393;SDS011;7795;47.986;11.868;2022-09-09T13:52:16;0.93;;;0.60;;
15393;SDS011;7795;47.986;11.868;2022-09-09T13:54:46;4.53;;;0.90;;
15393;SDS011;7795;47.986;11.868;2022-09-09T13:57:14;0.70;;;0.60;;
15393;SDS011;7795;47.986;11.868;2022-09-09T13:59:42;1.27;;;0.60;;
15393;SDS011;7795;47.986;11.868;2022-09-09T14:02:08;1.97;;;1.00;;
15393;SDS011;7795;47.986;11.868;2022-09-09T14:04:33;1.37;;;0.73;;
15393;SDS011;7795;47.986;11.868;2022-09-09T14:07:00;1.27;;;0.70;;
15393;SDS011;7795;47.986;11.868;2022-09-09T14:09:27;0.73;;;0.70;;
15393;SDS011;7795;47.986;11.868;2022-09-09T14:11:53;0.90;;;0.70;;
15393;SDS011;7795;47.986;11.868;2022-09-09T14:14:20;3.27;;;0.80;;
15393;SDS011;7795;47.986;11.868;2022-09-09T14:16:45;0.80;;;0.63;;
15393;SDS011;7795;47.986;11.868;2022-09-09T14:19:12;1.07;;;0.60;;
15393;SDS011;7795;47.986;11.868;2022-09-09T14:21:37;0.87;;;0.57;;
15393;SDS011;7795;47.986;11.868;2022-09-09T14:24:04;0.80;;;0.63;;
15393;SDS011;7795;47.986;11.868;2022-09-09T14:26:31;0.60;;;0.60;;
15393;SDS011;7795;47.986;11.868;2022-09-09T14:28:57;2.17;;;0.67;;
15393;SDS011;7795;47.986;11.868;2022-09-09T14:31:23;1.07;;;0.73;;
15393;SDS011;7795;47.986;11.868;2022-09-09T14:33:49;1.70;;;1.00;;
15393;SDS011;7795;47.986;11.868;2022-09-09T14:36:15;1.10;;;0.60;;
15393;SDS011;7795;47.986;11.868;2022-09-09T14:38:41;1.77;;;0.80;;
15393;SDS011;7795;47.986;11.868;2022-09-09T14:41:08;2.37;;;0.70;;
15393;SDS011;7795;47.986;11.868;2022-09-09T14:43:36;1.87;;;0.67;;
15393;SDS011;7795;47.986;11.868;2022-09-09T14:46:06;1.10;;;0.63;;
15393;SDS011;7795;47.986;11.868;2022-09-09T14:48:32;2.67;;;0.60;;
15393;SDS011;7795;47.986;11.868;2022-09-09T14:51:04;1.30;;;0.70;;
15393;SDS011;7795;47.986;11.868;2022-09-09T14:53:30;0.60;;;0.60;;
15393;SDS011;7795;47.986;11.868;2022-09-09T14:56:02;1.00;;;0.70;;
15393;SDS011;7795;47.986;11.868;2022-09-09T14:58:29;1.13;;;0.97;;
15393;SDS011;7795;47.986;11.868;2022-09-09T15:01:02;1.90;;;0.50;;
15393;SDS011;7795;47.986;11.868;2022-09-09T15:03:29;0.70;;;0.53;;
15393;SDS011;7795;47.986;11.868;2022-09-09T15:05:54;0.60;;;0.60;;
15393;SDS011;7795;47.986;11.868;2022-09-09T15:08:20;0.63;;;0.60;;